AirNav   Phillips 66 Aviation Fuel
 
 1281 users online  

M60 Woodruff County Airport
Augusta, Arkansas, USA


FAA INFORMATION EFFECTIVE 01 FEBRUARY 2018

Location

FAA Identifier: M60
Lat/Long: 35-16-18.8600N / 091-16-13.1900W
35-16.314333N / 091-16.219833W
35.2719056 / -91.2703306
(estimated)
Elevation: 200 ft. / 61.0 m (surveyed)
Variation: 01W (2020)
From city: 4 miles E of AUGUSTA, AR
Time zone: UTC -6 (UTC -5 during Daylight Saving Time)
Zip code: 72006

Airport Operations

Airport use: Open to the public
Activation date: 11/1979
Control tower: no
ARTCC: MEMPHIS CENTER
FSS: JONESBORO FLIGHT SERVICE STATION
NOTAMs facility: JBR (NOTAM-D service available)
Attendance: UNATNDD
Wind indicator: lighted
Segmented circle: yes
Lights: ACTVT MIRL RY 09/27 - CTAF.
Beacon: white-green (lighted land airport)
Operates sunset to sunrise.

Airport Communications

CTAF: 122.9
  • APCH/DEP SVC PRVDD BY MEMPHIS ARTCC (ZME) ON 135.3/335.8 (BRINKLEY RCAG).

Nearby radio navigation aids

VOR radial/distance  VOR name  Freq  Var
GQEr259/39.0GILMORE VOR/DME113.0004E

Airport Services

Parking: tiedowns
Airframe service: NONE
Powerplant service: NONE

Runway Information

Runway 9/27

Dimensions: 3797 x 75 ft. / 1157 x 23 m
Surface: asphalt, in good condition
Runway edge lights: medium intensity
RUNWAY 9  RUNWAY 27
Latitude: 35-16.318367N35-16.310167N
Longitude: 091-16.601333W091-15.838333W
Elevation: 197.8 ft.198.1 ft.
Traffic pattern: leftleft
Markings: nonprecision, in good conditionnonprecision, in good condition
Visual slope indicator: 2-light PAPI on left (3.00 degrees glide path)2-light PAPI on left (3.04 degrees glide path)
Touchdown point: yes, no lightsyes, no lights
Obstructions: 4 ft. road, 300 ft. from runway, 25:1 slope to clear35 ft. trees, 950 ft. from runway, 400 ft. left of centerline, 21:1 slope to clear

Airport Ownership and Management from official FAA records

Ownership: Publicly-owned
Owner: WOODRUFF COUNTY
BOX 300
AUGUSTA, AR 72006
Phone 870-347-5206
Manager: CHARLES DALLAS - CO. JUDGE
P.O. BOX 300
AUGUSTA, AR 72006
Phone 870-731-5516

Airport Operational Statistics

Aircraft operations: avg 105/week *
91% local general aviation
9% transient general aviation
* for 12-month period ending 30 June 2017

Additional Remarks

DEER ON & INVOF ARPT.
15 FT WIDE DRAINAGE DITCH APROXLY 250 FT WEST OF RY 09 APCH.

Instrument Procedures

NOTE: All procedures below are presented as PDF files. If you need a reader for these files, you should download the free Adobe Reader.

NOT FOR NAVIGATION. Please procure official charts for flight.
FAA instrument procedures published for use between 1 February 2018 at 0901Z and 1 March 2018 at 0900Z.

 
IAPs - Instrument Approach Procedures
RNAV (GPS)-A **CHANGED**   download (154KB)
NOTE: Special Take-Off Minimums/Departure Procedures apply   download (263KB)

Other nearby airports with instrument procedures:

M19 - Newport Regional Airport (22 nm N)
KSRC - Searcy Municipal Airport (23 nm W)
KDRP - Delta Regional Airport (24 nm SE)
M36 - Frank Federer Memorial Airport (24 nm S)
KBVX - Batesville Regional Airport (33 nm NW)
 
Loc | Ops | Rwys | IFR | FBO | Links
Com | Nav | Svcs | Stats | Notes

Fly Arkansas
AirBoss

 
Area around M60 (Woodruff County Airport)
 
Road maps at: MapQuest Bing Google
 
Aerial photo
WARNING: Photo may not be current or correct
Aerial photo of M60 (Woodruff County Airport)
Photo courtesy of the Arkansas Department of Aeronautics
Taken in the Spring of 2007

Do you have a better or more recent aerial photo of Woodruff County Airport that you would like to share? If so, please send us your photo.

 
Sectional chart

 
Airport distance calculator
Flying to Woodruff County Airport? Find the distance to fly.

From to M60

Sunrise and sunset
Times for 20-Feb-2018
 Local
(UTC-6)
 Zulu
(UTC)
Morning civil twilight06:2112:21
Sunrise06:4712:47
Sunset17:5123:51
Evening civil twilight18:1700:17

Current date and time
Zulu (UTC)  21-Feb-2018 00:03:01
Local (UTC-6)  20-Feb-2018 18:03:01
 
METAR
KM19 
22nm N 
202356Z AUTO 16017G23KT 10SM 22/18 A2998 RMK AO2 SLP156 T02220183 10250 20217 58002 $
KSRC 
23nm W 
202356Z AUTO 16009KT 10SM CLR 23/21 A2998 RMK AO2 SLP158 6//// T02280206 10261 20228 53002
KBVX 
32nm NW 
202356Z AUTO 16009G16KT 10SM BKN070 23/18 A2998 RMK AO2 SLP148 T02330178 10256 20233 52003
KSGT 
43nm S 
202356Z AUTO 16011KT 10SM FEW070 BKN100 24/18 A3000 RMK AO2 SLP157 T02390178 10261 20239 55003
TAF
KJBR 
45nm NE 
202100Z 2021/2118 17013G20KT P6SM VCSH SCT035 BKN050 OVC080 FM210400 20014KT P6SM VCTS BKN035CB OVC070 TEMPO 2104/2108 1SM +TSRA OVC008CB FM210800 01012KT 3SM -RA OVC005 FM211400 03012G18KT 2SM RA OVC003
KLRF 
48nm SW 
202300Z 2023/2205 18012KT 9999 BKN040 510202 QNH2995INS BECMG 2102/2103 18012KT 9000 -SHRA BKN015 QNH3005INS TEMPO 2103/2109 20025G40KT 3200 TSRA OVC007CB BECMG 2109/2110 20012KT 8000 -SHRA OVC007 QNH3008INS TEMPO 2110/2112 20015G25KT 3200 -TSRA OVC007CB BECMG 2111/2112 01012G20KT 4800 SHRA OVC007 QNH3020INS BECMG 2118/2119 04012KT 4800 SHRA OVC007 QNH3033INS BECMG 2200/2201 04012G18KT 4800 RA OVC005 520202 QNH3030INS TX27/2023Z TN06/2115Z
NOTAMs
Click for the latest NOTAMs
NOTAMs are issued by the DoD/FAA and will open in a separate window not controlled by AirNav.

 

 
 

Would you like to see your business listed on this page?

 If your business provides an interesting product or service to pilots, flight crews, aircraft, or users of the Woodruff County Airport, you should consider listing it here.  To start the listing process, click on the button below
 
Add a business
 

Other Pages about Woodruff County Airport

Update a link
 
Copyright © AirNav, LLC. All rights reserved. Privacy Policy  Contact